createdAt,value
2022-10-07T00:00:56.482Z,15.24
2022-10-07T00:03:26.084Z,15.22
2022-10-07T00:06:16.697Z,15.21
2022-10-07T00:08:47.111Z,15.20
2022-10-07T00:11:25.332Z,15.15
2022-10-07T00:13:59.685Z,15.20
2022-10-07T00:16:30.393Z,15.17
2022-10-07T00:19:01.107Z,15.17
2022-10-07T00:21:33.281Z,15.16
2022-10-07T00:24:00.607Z,15.15
2022-10-07T00:26:31.699Z,15.17
2022-10-07T00:28:58.843Z,15.13
2022-10-07T00:31:30.509Z,15.04
2022-10-07T00:33:58.144Z,15.14
2022-10-07T00:36:32.131Z,15.08
2022-10-07T00:39:02.226Z,15.05
2022-10-07T00:41:35.152Z,15.11
2022-10-07T00:44:42.834Z,15.13
2022-10-07T00:47:28.881Z,15.14
2022-10-07T00:50:03.644Z,15.10
2022-10-07T00:52:35.006Z,15.13
2022-10-07T00:55:07.957Z,15.12
2022-10-07T00:57:36.441Z,15.13
2022-10-07T01:00:06.878Z,15.06
2022-10-07T01:02:34.762Z,15.11
2022-10-07T01:05:06.557Z,15.09
2022-10-07T01:07:33.900Z,15.00
2022-10-07T01:10:01.664Z,15.13
2022-10-07T01:13:08.634Z,15.13
2022-10-07T01:15:47.775Z,15.12
2022-10-07T01:18:52.685Z,15.10
2022-10-07T01:21:30.087Z,15.14
2022-10-07T01:24:36.079Z,15.13
2022-10-07T01:27:24.431Z,15.12
2022-10-07T01:30:03.294Z,15.15
2022-10-07T01:32:41.901Z,15.11
2022-10-07T01:35:15.410Z,15.16
2022-10-07T01:37:50.588Z,15.16
2022-10-07T01:40:24.327Z,14.97
2022-10-07T01:42:54.391Z,15.09
2022-10-07T01:45:24.783Z,15.11
2022-10-07T01:47:52.101Z,15.10
2022-10-07T01:50:24.400Z,15.10
2022-10-07T01:53:12.690Z,15.11
2022-10-07T01:56:16.922Z,15.10
2022-10-07T01:59:07.946Z,15.10
2022-10-07T02:01:53.004Z,15.10
2022-10-07T02:04:33.968Z,14.97
2022-10-07T02:07:33.522Z,15.10
2022-10-07T02:10:24.168Z,15.03
2022-10-07T02:13:11.418Z,15.07
2022-10-07T02:16:12.107Z,15.09
2022-10-07T02:18:41.677Z,15.03
2022-10-07T02:21:10.278Z,15.09
2022-10-07T02:23:41.099Z,15.08
2022-10-07T02:26:13.302Z,15.06
2022-10-07T02:28:42.696Z,15.07
2022-10-07T02:31:12.962Z,15.09
2022-10-07T02:33:42.075Z,15.09
2022-10-07T02:36:18.132Z,15.07
2022-10-07T02:38:45.318Z,15.07
2022-10-07T02:41:56.207Z,15.09
2022-10-07T02:44:35.468Z,15.08
2022-10-07T02:47:14.243Z,15.06
2022-10-07T02:49:45.303Z,15.08
2022-10-07T02:52:15.661Z,15.07
2022-10-07T02:55:00.746Z,15.06
2022-10-07T02:57:31.502Z,15.08
2022-10-07T03:00:00.968Z,15.08
2022-10-07T03:02:51.510Z,15.03
2022-10-07T03:05:21.412Z,15.09
2022-10-07T03:07:51.731Z,15.07
2022-10-07T03:10:19.228Z,15.08
2022-10-07T03:12:46.105Z,15.09
2022-10-07T03:15:13.545Z,15.06
2022-10-07T03:17:41.059Z,14.96
2022-10-07T03:20:09.557Z,15.08
2022-10-07T03:22:36.649Z,15.03
2022-10-07T03:25:03.912Z,15.07
2022-10-07T03:27:30.676Z,15.02
2022-10-07T03:29:58.512Z,15.05
2022-10-07T03:32:29.663Z,14.96
2022-10-07T03:34:56.445Z,15.04
2022-10-07T03:37:24.121Z,14.98
2022-10-07T03:39:52.677Z,15.08
2022-10-07T03:42:20.924Z,15.05
2022-10-07T03:44:51.145Z,15.05
2022-10-07T03:47:17.990Z,15.07
2022-10-07T03:49:45.430Z,15.05
2022-10-07T03:52:12.362Z,14.98
2022-10-07T03:54:39.234Z,15.01
2022-10-07T03:57:28.850Z,15.07
2022-10-07T03:59:55.668Z,15.07
2022-10-07T04:02:23.340Z,15.09
2022-10-07T04:04:52.838Z,15.07
2022-10-07T04:07:22.740Z,15.07
2022-10-07T04:09:49.597Z,15.07
2022-10-07T04:12:16.394Z,15.05
2022-10-07T04:14:43.241Z,14.90
2022-10-07T04:17:10.082Z,14.93
2022-10-07T04:19:37.095Z,15.04
2022-10-07T04:22:08.935Z,15.05
2022-10-07T04:24:36.393Z,15.04
2022-10-07T04:27:04.975Z,15.08
2022-10-07T04:29:38.119Z,15.07
2022-10-07T04:32:06.507Z,15.05
2022-10-07T04:34:33.293Z,14.71
2022-10-07T04:37:01.206Z,15.07
2022-10-07T04:39:43.037Z,14.95
2022-10-07T04:42:33.861Z,15.03
2022-10-07T04:45:00.642Z,15.01
2022-10-07T04:47:27.495Z,14.86
2022-10-07T04:49:54.379Z,15.01
2022-10-07T04:52:21.219Z,15.00
2022-10-07T04:54:47.998Z,15.00
2022-10-07T04:57:14.767Z,14.95
2022-10-07T04:59:42.980Z,14.99
2022-10-07T05:02:10.265Z,14.99
2022-10-07T05:04:37.142Z,14.99
2022-10-07T05:07:04.702Z,14.99
2022-10-07T05:09:31.492Z,14.99
2022-10-07T05:11:58.258Z,14.97
2022-10-07T05:14:25.031Z,14.95
2022-10-07T05:16:52.517Z,14.97
2022-10-07T05:19:20.108Z,14.96
2022-10-07T05:21:47.005Z,14.96
2022-10-07T05:24:13.909Z,14.97
2022-10-07T05:26:40.757Z,14.93
2022-10-07T05:29:07.604Z,14.98
2022-10-07T05:31:34.637Z,14.96
2022-10-07T05:34:02.103Z,14.96
2022-10-07T05:36:29.109Z,14.96
2022-10-07T05:38:59.465Z,14.93
2022-10-07T05:41:28.322Z,14.91
2022-10-07T05:43:55.092Z,14.90
2022-10-07T05:46:23.674Z,14.88
2022-10-07T05:48:53.188Z,14.91
2022-10-07T05:51:24.918Z,14.86
2022-10-07T05:53:56.018Z,14.91
2022-10-07T05:56:23.071Z,14.70
2022-10-07T05:58:52.732Z,14.91
2022-10-07T06:01:24.672Z,14.91
2022-10-07T06:03:57.229Z,14.88
2022-10-07T06:06:25.666Z,14.87
2022-10-07T06:08:53.442Z,14.88
2022-10-07T06:11:39.457Z,14.86
2022-10-07T06:14:06.753Z,14.74
2022-10-07T06:16:33.731Z,14.88
2022-10-07T06:19:00.829Z,14.87
2022-10-07T06:21:28.057Z,14.74
2022-10-07T06:23:57.804Z,14.87
2022-10-07T06:26:24.777Z,14.88
2022-10-07T06:28:51.639Z,14.89
2022-10-07T06:31:22.576Z,14.88
2022-10-07T06:33:50.690Z,14.87
2022-10-07T06:36:18.341Z,14.88
2022-10-07T06:38:47.968Z,14.89
2022-10-07T06:41:15.912Z,14.90
2022-10-07T06:43:42.689Z,14.91
2022-10-07T06:46:15.325Z,14.92
2022-10-07T06:48:43.083Z,14.93
2022-10-07T06:51:17.520Z,14.89
2022-10-07T06:53:44.715Z,14.93
2022-10-07T06:56:14.203Z,14.95
2022-10-07T06:58:42.534Z,14.94
2022-10-07T07:01:09.618Z,14.94
2022-10-07T07:03:36.524Z,14.99
2022-10-07T07:06:03.359Z,15.00
2022-10-07T07:08:31.950Z,15.01
2022-10-07T07:11:27.950Z,15.02
2022-10-07T07:13:55.772Z,15.05
2022-10-07T07:16:24.320Z,15.06
2022-10-07T07:18:53.695Z,15.03
2022-10-07T07:21:21.529Z,15.06
2022-10-07T07:23:48.910Z,14.93
2022-10-07T07:26:15.641Z,15.11
2022-10-07T07:28:42.558Z,15.04
2022-10-07T07:31:12.749Z,15.10
2022-10-07T07:33:40.243Z,15.17
2022-10-07T07:36:16.336Z,15.19
2022-10-07T07:38:44.606Z,15.22
2022-10-07T07:41:11.795Z,15.23
2022-10-07T07:43:38.541Z,15.23
2022-10-07T07:46:05.377Z,15.27
2022-10-07T07:48:32.202Z,15.28
2022-10-07T07:51:00.212Z,15.29
2022-10-07T07:53:26.994Z,15.28
2022-10-07T07:55:55.878Z,15.33
2022-10-07T07:58:24.386Z,15.33
2022-10-07T08:01:07.551Z,15.36
2022-10-07T08:03:38.512Z,15.36
2022-10-07T08:06:07.825Z,15.33
2022-10-07T08:08:34.703Z,15.31
2022-10-07T08:11:19.637Z,15.40
2022-10-07T08:13:47.427Z,15.43
2022-10-07T08:16:19.319Z,15.29
2022-10-07T08:18:49.931Z,15.47
2022-10-07T08:21:20.039Z,15.47
2022-10-07T08:23:50.416Z,15.50
2022-10-07T08:26:17.221Z,15.52
2022-10-07T08:28:44.895Z,15.54
2022-10-07T08:31:14.253Z,15.56
2022-10-07T08:33:44.920Z,15.57
2022-10-07T08:36:21.458Z,15.60
2022-10-07T08:38:49.260Z,15.51
2022-10-07T08:41:15.985Z,15.63
2022-10-07T08:43:49.409Z,15.66
2022-10-07T08:46:20.781Z,15.60
2022-10-07T08:48:59.981Z,15.71
2022-10-07T08:51:48.296Z,15.73
2022-10-07T08:54:26.344Z,15.81
2022-10-07T08:56:55.319Z,15.84
2022-10-07T08:59:33.115Z,15.89
2022-10-07T09:02:35.710Z,15.94
2022-10-07T09:05:26.697Z,16.00
2022-10-07T09:07:59.816Z,16.01
2022-10-07T09:10:38.559Z,16.10
2022-10-07T09:13:29.823Z,16.17
2022-10-07T09:16:12.031Z,16.29
2022-10-07T09:18:50.801Z,16.36
2022-10-07T09:21:25.404Z,16.43
2022-10-07T09:23:57.346Z,16.47
2022-10-07T09:26:27.338Z,16.57
2022-10-07T09:28:54.307Z,16.56
2022-10-07T09:31:24.939Z,16.86
2022-10-07T09:33:53.948Z,16.91
2022-10-07T09:36:20.786Z,16.87
2022-10-07T09:38:52.219Z,16.85
2022-10-07T09:41:31.750Z,16.86
2022-10-07T09:44:23.793Z,17.09
2022-10-07T09:46:55.012Z,17.29
2022-10-07T09:49:28.000Z,17.25
2022-10-07T09:52:06.387Z,17.21
2022-10-07T09:54:35.948Z,17.23
2022-10-07T09:57:05.583Z,17.27
2022-10-07T09:59:35.231Z,17.29
2022-10-07T10:02:30.199Z,17.26
2022-10-07T10:04:57.842Z,17.28
2022-10-07T10:07:31.101Z,17.24
2022-10-07T10:10:17.451Z,17.41
2022-10-07T10:12:51.676Z,17.39
2022-10-07T10:15:40.875Z,17.45
2022-10-07T10:18:31.985Z,17.50
2022-10-07T10:21:34.873Z,17.52
2022-10-07T10:24:06.163Z,17.55
2022-10-07T10:26:56.472Z,17.58
2022-10-07T10:29:41.864Z,17.77
2022-10-07T10:32:20.922Z,17.87
2022-10-07T10:35:05.222Z,17.93
2022-10-07T10:37:40.845Z,18.10
2022-10-07T10:40:22.878Z,18.11
2022-10-07T10:43:11.251Z,18.07
2022-10-07T10:46:26.954Z,18.05
2022-10-07T10:48:58.393Z,17.99
2022-10-07T10:51:45.161Z,18.10
2022-10-07T10:54:55.961Z,18.20
2022-10-07T10:58:04.507Z,18.25
2022-10-07T11:00:59.564Z,18.25
2022-10-07T11:03:58.753Z,18.32
2022-10-07T11:06:28.543Z,18.31
2022-10-07T11:08:58.968Z,18.40
2022-10-07T11:11:27.204Z,18.38
2022-10-07T11:14:20.981Z,18.36
2022-10-07T11:16:56.569Z,18.42
2022-10-07T11:19:31.415Z,18.41
2022-10-07T11:22:00.423Z,18.47
2022-10-07T11:24:43.150Z,18.48
2022-10-07T11:27:33.782Z,18.54
2022-10-07T11:30:19.934Z,18.33
2022-10-07T11:32:56.800Z,18.64
2022-10-07T11:35:31.287Z,18.65
2022-10-07T11:38:09.847Z,18.63
2022-10-07T11:40:52.604Z,18.61
2022-10-07T11:43:33.142Z,18.61
2022-10-07T11:46:14.757Z,18.64
2022-10-07T11:48:54.638Z,18.74
2022-10-07T11:51:30.512Z,18.82
2022-10-07T11:54:02.906Z,18.81
2022-10-07T11:56:49.276Z,18.87
2022-10-07T12:00:00.378Z,18.81
2022-10-07T12:02:30.350Z,18.79
2022-10-07T12:05:02.160Z,18.75
2022-10-07T12:07:45.009Z,18.77
2022-10-07T12:10:28.544Z,18.79
2022-10-07T12:13:01.883Z,18.82
2022-10-07T12:15:45.092Z,18.82
2022-10-07T12:18:13.870Z,18.91
2022-10-07T12:20:53.000Z,18.87
2022-10-07T12:23:20.186Z,18.87
2022-10-07T12:25:52.425Z,18.99
2022-10-07T12:28:27.906Z,19.15
2022-10-07T12:31:01.251Z,19.14
2022-10-07T12:33:44.480Z,19.06
2022-10-07T12:36:23.799Z,19.04
2022-10-07T12:38:59.443Z,19.03
2022-10-07T12:41:43.010Z,19.05
2022-10-07T12:44:24.021Z,19.05
2022-10-07T12:46:52.487Z,19.05
2022-10-07T12:49:40.344Z,18.95
2022-10-07T12:52:24.048Z,19.01
2022-10-07T12:55:15.202Z,19.11
2022-10-07T12:57:49.026Z,19.22
2022-10-07T13:00:20.408Z,19.17
2022-10-07T13:03:17.562Z,19.15
2022-10-07T13:06:32.688Z,19.16
2022-10-07T13:09:21.143Z,19.15
2022-10-07T13:12:08.174Z,19.18
2022-10-07T13:14:59.894Z,19.19
2022-10-07T13:18:11.001Z,19.15
2022-10-07T13:21:01.271Z,19.20
2022-10-07T13:23:30.539Z,19.14
2022-10-07T13:26:00.328Z,19.14
2022-10-07T13:28:44.943Z,19.16
2022-10-07T13:31:20.235Z,19.19
2022-10-07T13:33:47.794Z,19.19
2022-10-07T13:36:19.287Z,19.19
2022-10-07T13:38:48.424Z,19.18
2022-10-07T13:41:27.961Z,19.18
2022-10-07T13:44:00.097Z,19.22
2022-10-07T13:46:31.107Z,19.31
2022-10-07T13:48:59.459Z,19.39
2022-10-07T13:51:37.839Z,19.34
2022-10-07T13:54:15.385Z,19.35
2022-10-07T13:56:43.114Z,19.35
2022-10-07T13:59:18.031Z,19.27
2022-10-07T14:01:55.060Z,19.28
2022-10-07T14:04:28.589Z,19.27
2022-10-07T14:07:12.625Z,19.25
2022-10-07T14:09:56.027Z,19.23
2022-10-07T14:12:31.432Z,19.33
2022-10-07T14:15:21.726Z,19.39
2022-10-07T14:18:04.361Z,19.50
2022-10-07T14:20:35.390Z,19.52
2022-10-07T14:23:07.533Z,19.52
2022-10-07T14:25:59.068Z,19.59
2022-10-07T14:28:27.675Z,19.65
2022-10-07T14:31:25.126Z,19.56
2022-10-07T14:34:32.639Z,19.54
2022-10-07T14:37:32.102Z,19.56
2022-10-07T14:39:59.007Z,19.68
2022-10-07T14:42:30.229Z,19.64
2022-10-07T14:44:57.969Z,19.64
2022-10-07T14:47:28.133Z,19.56
2022-10-07T14:49:57.113Z,19.56
2022-10-07T14:52:29.456Z,19.53
2022-10-07T14:54:59.245Z,19.51
2022-10-07T14:57:26.262Z,19.48
2022-10-07T14:59:54.074Z,19.49
2022-10-07T15:02:21.064Z,19.47
2022-10-07T15:04:48.382Z,19.55
2022-10-07T15:07:16.723Z,19.48
2022-10-07T15:09:45.468Z,19.41
2022-10-07T15:12:15.099Z,19.32
2022-10-07T15:14:42.471Z,19.29
2022-10-07T15:17:12.026Z,19.30
2022-10-07T15:19:39.015Z,19.29
2022-10-07T15:22:05.865Z,19.25
2022-10-07T15:24:33.163Z,19.30
2022-10-07T15:27:00.639Z,19.30
2022-10-07T15:29:28.515Z,19.28
2022-10-07T15:31:55.537Z,19.27
2022-10-07T15:34:22.737Z,19.26
2022-10-07T15:36:50.219Z,19.26
2022-10-07T15:39:17.045Z,19.24
2022-10-07T15:41:44.454Z,19.21
2022-10-07T15:44:19.851Z,19.26
2022-10-07T15:46:48.645Z,19.26
2022-10-07T15:49:19.005Z,19.27
2022-10-07T15:51:46.603Z,19.26
2022-10-07T15:54:13.591Z,19.12
2022-10-07T15:56:40.867Z,19.25
2022-10-07T15:59:08.033Z,19.22
2022-10-07T16:01:34.968Z,19.19
2022-10-07T16:04:03.746Z,19.07
2022-10-07T16:06:34.882Z,19.13
2022-10-07T16:09:03.218Z,19.11
2022-10-07T16:11:32.948Z,19.11
2022-10-07T16:14:01.957Z,19.03
2022-10-07T16:16:33.452Z,19.09
2022-10-07T16:19:01.099Z,19.06
2022-10-07T16:21:33.689Z,18.97
2022-10-07T16:24:29.989Z,18.99
2022-10-07T16:26:59.499Z,18.99
2022-10-07T16:29:44.832Z,18.99
2022-10-07T16:32:11.872Z,18.95
2022-10-07T16:34:43.083Z,18.93
2022-10-07T16:37:11.284Z,18.90
2022-10-07T16:39:38.594Z,18.89
2022-10-07T16:42:05.614Z,18.85
2022-10-07T16:44:32.588Z,18.82
2022-10-07T16:47:00.186Z,18.79
2022-10-07T16:49:29.206Z,18.78
2022-10-07T16:51:56.767Z,18.75
2022-10-07T16:54:24.143Z,18.65
2022-10-07T16:56:52.581Z,18.60
2022-10-07T16:59:24.828Z,18.56
2022-10-07T17:01:55.394Z,18.55
2022-10-07T17:04:22.925Z,18.52
2022-10-07T17:06:49.704Z,18.48
2022-10-07T17:09:18.177Z,18.46
2022-10-07T17:11:45.950Z,18.43
2022-10-07T17:14:16.973Z,18.37
2022-10-07T17:16:48.503Z,18.37
2022-10-07T17:19:19.249Z,18.35
2022-10-07T17:21:47.972Z,18.32
2022-10-07T17:24:16.719Z,18.30
2022-10-07T17:26:44.764Z,18.27
2022-10-07T17:29:14.197Z,18.25
2022-10-07T17:31:43.313Z,18.24
2022-10-07T17:34:13.399Z,18.21
2022-10-07T17:36:40.261Z,18.19
2022-10-07T17:39:07.654Z,18.15
2022-10-07T17:41:37.150Z,18.13
2022-10-07T17:44:09.300Z,18.09
2022-10-07T17:46:39.215Z,18.08
2022-10-07T17:49:09.520Z,18.06
2022-10-07T17:51:37.602Z,18.01
2022-10-07T17:54:06.011Z,18.00
2022-10-07T17:56:34.193Z,17.89
2022-10-07T17:59:01.048Z,17.86
2022-10-07T18:01:32.762Z,17.91
2022-10-07T18:04:05.948Z,17.86
2022-10-07T18:06:36.612Z,17.84
2022-10-07T18:09:08.134Z,17.81
2022-10-07T18:11:54.382Z,17.78
2022-10-07T18:14:39.874Z,17.67
2022-10-07T18:17:07.750Z,17.62
2022-10-07T18:19:34.777Z,17.70
2022-10-07T18:22:02.962Z,17.66
2022-10-07T18:24:30.029Z,17.50
2022-10-07T18:26:59.117Z,17.55
2022-10-07T18:29:27.668Z,17.43
2022-10-07T18:31:54.645Z,17.49
2022-10-07T18:34:21.783Z,17.45
2022-10-07T18:36:50.633Z,17.42
2022-10-07T18:39:20.784Z,17.41
2022-10-07T18:41:47.570Z,17.38
2022-10-07T18:44:14.394Z,17.36
2022-10-07T18:46:41.265Z,17.32
2022-10-07T18:49:09.336Z,17.28
2022-10-07T18:51:36.217Z,17.25
2022-10-07T18:54:03.054Z,17.22
2022-10-07T18:56:29.858Z,17.18
2022-10-07T18:58:58.434Z,17.17
2022-10-07T19:01:30.060Z,17.02
2022-10-07T19:04:02.447Z,17.10
2022-10-07T19:06:32.743Z,17.07
2022-10-07T19:09:03.363Z,17.06
2022-10-07T19:11:30.488Z,16.92
2022-10-07T19:13:59.093Z,16.99
2022-10-07T19:16:28.295Z,16.97
2022-10-07T19:18:58.985Z,16.94
2022-10-07T19:21:26.411Z,16.91
2022-10-07T19:23:56.189Z,16.92
2022-10-07T19:26:34.866Z,16.88
2022-10-07T19:29:03.616Z,16.87
2022-10-07T19:31:35.301Z,16.84
2022-10-07T19:34:05.777Z,16.82
2022-10-07T19:36:36.203Z,16.78
2022-10-07T19:39:05.003Z,16.73
2022-10-07T19:41:34.195Z,16.77
2022-10-07T19:44:01.820Z,16.75
2022-10-07T19:46:31.694Z,16.75
2022-10-07T19:49:00.990Z,16.67
2022-10-07T19:51:32.861Z,16.71
2022-10-07T19:54:03.103Z,16.69
2022-10-07T19:56:33.721Z,16.69
2022-10-07T19:59:05.428Z,16.67
2022-10-07T20:01:37.222Z,16.64
2022-10-07T20:04:17.492Z,16.61
2022-10-07T20:06:44.645Z,16.56
2022-10-07T20:09:15.507Z,16.62
2022-10-07T20:11:43.072Z,16.61
2022-10-07T20:14:10.075Z,16.59
2022-10-07T20:16:38.221Z,16.54
2022-10-07T20:19:08.488Z,16.53
2022-10-07T20:21:38.068Z,16.53
2022-10-07T20:24:06.713Z,16.43
2022-10-07T20:26:37.167Z,16.48
2022-10-07T20:29:06.994Z,16.45
2022-10-07T20:31:38.428Z,16.40
2022-10-07T20:34:07.168Z,16.41
2022-10-07T20:36:37.887Z,16.38
2022-10-07T20:39:33.632Z,16.34
2022-10-07T20:42:19.664Z,16.36
2022-10-07T20:44:49.029Z,16.30
2022-10-07T20:47:17.127Z,16.27
2022-10-07T20:49:44.041Z,16.20
2022-10-07T20:52:16.667Z,16.19
2022-10-07T20:54:44.959Z,16.19
2022-10-07T20:57:15.844Z,16.15
2022-10-07T20:59:43.164Z,16.13
2022-10-07T21:02:15.074Z,16.10
2022-10-07T21:04:42.694Z,16.08
2022-10-07T21:07:09.761Z,16.03
2022-10-07T21:09:36.843Z,16.02
2022-10-07T21:12:11.197Z,15.98
2022-10-07T21:14:38.313Z,15.90
2022-10-07T21:17:06.590Z,15.92
2022-10-07T21:19:35.912Z,15.90
2022-10-07T21:22:04.817Z,15.90
2022-10-07T21:24:34.448Z,15.87
2022-10-07T21:27:06.671Z,15.84
2022-10-07T21:29:39.023Z,15.78
2022-10-07T21:32:09.218Z,15.80
2022-10-07T21:34:36.937Z,15.80
2022-10-07T21:37:04.700Z,15.79
2022-10-07T21:39:31.647Z,15.75
2022-10-07T21:41:59.710Z,15.74
2022-10-07T21:44:27.402Z,15.74
2022-10-07T21:46:54.288Z,15.72
2022-10-07T21:49:21.028Z,15.69
2022-10-07T21:51:47.969Z,15.69
2022-10-07T21:54:15.385Z,15.68
2022-10-07T21:56:45.071Z,15.66
2022-10-07T21:59:12.358Z,15.66
2022-10-07T22:01:39.390Z,15.66
2022-10-07T22:04:07.968Z,15.63
2022-10-07T22:06:53.126Z,15.57
2022-10-07T22:09:21.257Z,15.63
2022-10-07T22:11:48.931Z,15.61
2022-10-07T22:14:15.709Z,15.60
2022-10-07T22:16:42.534Z,15.59
2022-10-07T22:19:10.614Z,15.59
2022-10-07T22:21:40.067Z,15.59
2022-10-07T22:24:08.627Z,15.58
2022-10-07T22:26:46.123Z,15.56
2022-10-07T22:29:16.124Z,15.54
2022-10-07T22:31:43.684Z,15.54
2022-10-07T22:34:30.735Z,15.53
2022-10-07T22:37:00.431Z,15.50
2022-10-07T22:39:28.710Z,15.50
2022-10-07T22:41:56.660Z,15.50
2022-10-07T22:44:23.458Z,15.48
2022-10-07T22:46:50.246Z,15.47
2022-10-07T22:49:17.079Z,15.45
2022-10-07T22:51:43.933Z,15.47
2022-10-07T22:54:13.317Z,15.43
2022-10-07T22:56:40.333Z,15.41
2022-10-07T22:59:08.474Z,15.41
2022-10-07T23:01:36.485Z,15.26
2022-10-07T23:04:04.602Z,15.39
2022-10-07T23:06:34.921Z,15.39
2022-10-07T23:09:04.348Z,15.37
2022-10-07T23:11:31.948Z,15.32
2022-10-07T23:13:59.870Z,15.34
2022-10-07T23:16:34.017Z,15.36
2022-10-07T23:19:00.966Z,15.34
2022-10-07T23:21:33.543Z,15.34
2022-10-07T23:24:06.796Z,15.30
2022-10-07T23:26:34.948Z,15.30
2022-10-07T23:29:02.687Z,15.29
2022-10-07T23:31:31.974Z,15.28
2022-10-07T23:34:00.900Z,15.28
2022-10-07T23:36:28.039Z,15.29
2022-10-07T23:38:55.266Z,15.27
2022-10-07T23:41:26.099Z,15.28
2022-10-07T23:43:56.519Z,15.29
2022-10-07T23:46:26.221Z,15.27
2022-10-07T23:48:54.262Z,15.28
2022-10-07T23:51:23.686Z,15.29
2022-10-07T23:53:50.903Z,15.29
2022-10-07T23:56:18.673Z,15.28
2022-10-07T23:58:45.648Z,15.29
